^^
MeteoGriva-Weather Station Historical Data
Daily Summary for August 04, 2020 Units:  English    Metric   Both
Daily Weekly Monthly Yearly Custom
  High: Low: Average:
Temperature: 84.7 °F 68.7 °F 75.7 °F
Dew Point: 78.3 °F 65.1 °F 72.1 °F
Humidity: 99% 80.2% 89%
Wind Speed: 7.8mph 0mph 2.7mph
Wind Gust: 17.4mph - -
Wind- - South
Pressure: 29.8 in 0 in -
Precipitation: 0 in    
Historical Graphs
 
 
Tabular Data for August 04, 2020
Time Temperature Dew Point Pressure Wind Wind Speed Wind Gust Humidity Rainfall Rate (Hourly) solar
00:04 72.9 °F 67.1 °F 29.8 in SSW 4.9 mph 12.5 mph 82% 0 in 0 W/m2
00:09 72.9 °F 67.1 °F 29.8 in South 5.1 mph 12.5 mph 82% 0 in 0 W/m2
00:14 72.9 °F 67.1 °F 29.8 in SSW 4.7 mph 12.5 mph 82% 0 in 0 W/m2
00:19 72.9 °F 67.1 °F 29.8 in South 4.2 mph 10.1 mph 82% 0 in 0 W/m2
00:24 72.9 °F 67.1 °F 29.8 in South 5.2 mph 10.1 mph 82% 0 in 0 W/m2
00:29 72.9 °F 67.1 °F 29.8 in South 5.3 mph 10.1 mph 81.8% 0 in 0 W/m2
00:34 72.9 °F 67.1 °F 29.8 in South 3.1 mph 7.6 mph 81.9% 0 in 0 W/m2
00:39 72.7 °F 66.9 °F 29.8 in South 4.1 mph 10.1 mph 82% 0 in 0 W/m2
00:44 72.7 °F 66.7 °F 29.8 in South 3.5 mph 10.1 mph 82% 0 in 0 W/m2
00:49 72.7 °F 67.1 °F 29.8 in South 3 mph 10.1 mph 82.8% 0 in 0 W/m2
00:54 72.5 °F 67.3 °F 29.8 in South 3.9 mph 10.1 mph 83.3% 0 in 0 W/m2
00:59 72.5 °F 67.8 °F 29.8 in South 2.2 mph 7.6 mph 84.8% 0 in 0 W/m2
01:04 72.3 °F 67.8 °F 29.8 in South 1.9 mph 7.6 mph 85.9% 0 in 0 W/m2
01:09 72.3 °F 67.8 °F 29.8 in South 3.1 mph 7.6 mph 86.1% 0 in 0 W/m2
01:14 72.1 °F 68.2 °F 29.8 in South 3.3 mph 7.6 mph 87% 0 in 0 W/m2
01:19 72.1 °F 68 °F 29.8 in South 3.7 mph 7.6 mph 87.1% 0 in 0 W/m2
01:24 71.8 °F 68 °F 29.8 in South 3.3 mph 10.1 mph 87.7% 0 in 0 W/m2
01:29 71.8 °F 68 °F 29.8 in South 2.6 mph 7.6 mph 88% 0 in 0 W/m2
01:34 71.8 °F 68 °F 29.8 in South 3 mph 10.1 mph 87.8% 0 in 0 W/m2
01:39 71.8 °F 67.8 °F 29.8 in South 2.2 mph 7.6 mph 87.4% 0 in 0 W/m2
01:44 71.6 °F 67.8 °F 29.8 in South 3.7 mph 7.6 mph 88% 0 in 0 W/m2
01:49 71.6 °F 67.8 °F 29.8 in South 3.7 mph 10.1 mph 88% 0 in 0 W/m2
01:54 71.6 °F 67.5 °F 29.8 in SSE 2.5 mph 10.1 mph 87.2% 0 in 0 W/m2
01:59 71.6 °F 67.1 °F 29.8 in South 3.9 mph 10.1 mph 85.6% 0 in 0 W/m2
02:04 72.1 °F 67.1 °F 29.8 in South 3.5 mph 12.5 mph 84% 0 in 0 W/m2
02:09 72 °F 66.9 °F 29.8 in SSW 4.2 mph 12.5 mph 83.7% 0 in 0 W/m2
02:14 72.1 °F 66.9 °F 29.8 in South 2.8 mph 7.6 mph 83.6% 0 in 0 W/m2
02:19 72.1 °F 67.1 °F 29.8 in South 2.3 mph 7.6 mph 84% 0 in 0 W/m2
02:24 72 °F 66.7 °F 29.8 in South 4.7 mph 10.1 mph 83.4% 0 in 0 W/m2
02:29 72 °F 66.7 °F 29.8 in SSW 2.2 mph 10.1 mph 83.3% 0 in 0 W/m2
02:34 72 °F 66.7 °F 29.8 in South 3 mph 10.1 mph 83.6% 0 in 0 W/m2
02:39 72 °F 66.7 °F 29.8 in South 1.7 mph 7.6 mph 83.6% 0 in 0 W/m2
02:44 72.1 °F 66.7 °F 29.8 in South 3.2 mph 7.6 mph 83% 0 in 0 W/m2
02:49 72.1 °F 66.6 °F 29.8 in South 2.7 mph 7.6 mph 82.8% 0 in 0 W/m2
02:54 72.1 °F 66.4 °F 29.8 in South 3 mph 7.6 mph 82.2% 0 in 0 W/m2
02:59 72.1 °F 66.4 °F 29.8 in South 3 mph 7.6 mph 82% 0 in 0 W/m2
03:04 72.1 °F 66.4 °F 29.8 in South 4 mph 10.1 mph 82% 0 in 0 W/m2
03:09 72.1 °F 66 °F 29.8 in South 1 mph 10.1 mph 81.1% 0 in 0 W/m2
03:14 72.1 °F 66.2 °F 29.8 in South 0.6 mph 7.6 mph 81.3% 0 in 0 W/m2
03:19 72 °F 66.2 °F 29.8 in South 0.9 mph 4.9 mph 81.8% 0 in 0 W/m2
03:24 72 °F 66 °F 29.8 in SSE 0.6 mph 4.9 mph 81.3% 0 in 0 W/m2
03:29 71.8 °F 66.4 °F 29.8 in South 0.1 mph 2.5 mph 82.7% 0 in 0 W/m2
03:34 71.8 °F 66.4 °F 29.8 in Calm     83% 0 in 0 W/m2
03:39 71.6 °F 66.4 °F 29.8 in SSW 0.1 mph 2.5 mph 83.1% 0 in 0 W/m2
03:44 71.4 °F 66 °F 29.8 in South 0.4 mph 2.5 mph 83% 0 in 0 W/m2
03:49 71.4 °F 66 °F 29.8 in Calm   4.9 mph 83% 0 in 0 W/m2
03:54 71.4 °F 66 °F 29.8 in SE 0.2 mph 4.9 mph 83% 0 in 0 W/m2
03:59 71.4 °F 66 °F 29.8 in Calm   2.5 mph 83% 0 in 0 W/m2
04:04 71.8 °F 66.4 °F 29.7 in Calm     83% 0 in 0 W/m2
04:09 71.8 °F 66.6 °F 29.7 in Calm     83.4% 0 in 0 W/m2
04:14 71.8 °F 66.4 °F 29.7 in Calm     83% 0 in 0 W/m2
04:19 71.6 °F 66.2 °F 29.7 in Calm     83% 0 in 0 W/m2
04:24 70.9 °F 66.6 °F 29.7 in Calm     86.4% 0 in 0 W/m2
04:29 70.7 °F 66.9 °F 29.7 in Calm     88% 0 in 0 W/m2
04:34 70.5 °F 66.9 °F 29.7 in Calm     88.7% 0 in 0 W/m2
04:39 70.3 °F 66.9 °F 29.7 in Calm     89% 0 in 0 W/m2
04:44 69.8 °F 66.2 °F 29.7 in Calm     88.6% 0 in 0 W/m2
04:49 69.6 °F 65.8 °F 29.7 in Calm     88% 0 in 0 W/m2
04:54 69.6 °F 65.7 °F 29.7 in Calm     86.7% 0 in 0 W/m2
04:59 69.6 °F 65.1 °F 29.7 in Calm     85.5% 0 in 0 W/m2
05:04 70.2 °F 65.3 °F 29.7 in Calm     84.6% 0 in 0 W/m2
05:09 70.2 °F 65.5 °F 29.7 in Calm     85.2% 0 in 0 W/m2
05:14 70.2 °F 65.8 °F 29.7 in Calm     86.1% 0 in 0 W/m2
05:19 70.2 °F 66 °F 29.7 in Calm     87% 0 in 0 W/m2
05:24 69.8 °F 66 °F 29.7 in Calm     87.8% 0 in 0 W/m2
05:29 69.6 °F 66.6 °F 29.7 in Calm     89.8% 0 in 0 W/m2
05:34 69.6 °F 66.9 °F 29.7 in Calm     91.2% 0 in 0 W/m2
05:39 69.6 °F 67.3 °F 29.7 in Calm     92% 0 in 0 W/m2
05:44 69.3 °F 67.1 °F 29.7 in Calm     93.1% 0 in 0 W/m2
05:49 69.1 °F 68 °F 29.7 in Calm     96.7% 0 in 0 W/m2
05:54 69.1 °F 68.4 °F 29.7 in Calm     97.7% 0 in 0 W/m2
05:59 69.1 °F 68.7 °F 29.7 in Calm     99% 0 in 0 W/m2
06:04 69.3 °F 68.9 °F 29.7 in Calm     99% 0 in 0 W/m2
06:09 69.3 °F 68.9 °F 29.7 in Calm     99% 0 in 0 W/m2
06:14 69.3 °F 68.9 °F 29.7 in Calm     99% 0 in 0 W/m2
06:19 69.1 °F 68.7 °F 29.7 in Calm     99% 0 in 0 W/m2
06:24 68.9 °F 68.5 °F 29.7 in Calm     99% 0 in 0 W/m2
06:29 68.7 °F 68.4 °F 29.7 in Calm     99% 0 in 0 W/m2
06:34 68.7 °F 68.4 °F 29.7 in Calm     99% 0 in 3 W/m2
06:39 68.7 °F 68.4 °F 29.7 in Calm     99% 0 in 6 W/m2
06:44 68.9 °F 68.5 °F 29.7 in Calm     99% 0 in 11 W/m2
06:49 69.1 °F 68.7 °F 29.7 in Calm     99% 0 in 20 W/m2
06:54 69.1 °F 68.7 °F 29.8 in Calm     99% 0 in 28 W/m2
06:59 69.1 °F 68.7 °F 29.7 in Calm     99% 0 in 39 W/m2
07:04 69.8 °F 69.3 °F 29.8 in Calm     99% 0 in 52 W/m2
07:09 70 °F 69.6 °F 29.7 in Calm     99% 0 in 66 W/m2
07:14 70 °F 69.6 °F 29.8 in Calm     99% 0 in 83 W/m2
07:19 70.2 °F 69.8 °F 29.8 in Calm     99% 0 in 94 W/m2
07:24 70.5 °F 70.3 °F 29.8 in Calm     99% 0 in 105 W/m2
07:29 70.9 °F 70.5 °F 29.8 in Calm     99% 0 in 100 W/m2
07:34 70.7 °F 70.3 °F 29.8 in Calm     99% 0 in 99 W/m2
07:39 70.7 °F 70.3 °F 29.8 in Calm     99% 0 in 90 W/m2
07:44 70.5 °F 70 °F 29.8 in Calm     99% 0 in 130 W/m2
07:49 70.2 °F 69.8 °F 29.8 in Calm     99% 0 in 158 W/m2
07:54 70.3 °F 70 °F 29.8 in Calm     99% 0 in 196 W/m2
07:59 70.7 °F 70.3 °F 29.8 in Calm     99% 0 in 209 W/m2
08:04 73 °F 72.3 °F 29.8 in Calm     97.9% 0 in 222 W/m2
08:09 75.4 °F 74.3 °F 29.8 in Calm     96.4% 0 in 233 W/m2
08:14 75.4 °F 74.7 °F 29.8 in Calm     97.3% 0 in 233 W/m2
08:19 75.4 °F 74.1 °F 29.8 in Calm     95.8% 0 in 238 W/m2
08:24 75.6 °F 74.5 °F 29.8 in Calm     96.6% 0 in 247 W/m2
08:29 75.6 °F 74.1 °F 29.8 in Calm     95.6% 0 in 254 W/m2
08:34 75.6 °F 73.9 °F 29.8 in Calm     94.6% 0 in 266 W/m2
08:39 75.7 °F 74.1 °F 29.8 in SSE 0.3 mph 4.9 mph 95% 0 in 312 W/m2
08:44 75.2 °F 74.5 °F 29.8 in SE 0.1 mph 2.5 mph 97.7% 0 in 284 W/m2
08:49 74.7 °F 73.9 °F 29.8 in Calm     97.7% 0 in 220 W/m2
08:54 74.7 °F 73.6 °F 29.8 in Calm     96.2% 0 in 131 W/m2
08:59 74.7 °F 73.8 °F 29.8 in Calm     96.7% 0 in 124 W/m2
09:04 74.3 °F 73.9 °F 29.8 in Calm     98.3% 0 in 197 W/m2
09:09 73.9 °F 72.9 °F 29.8 in Calm     96.7% 0 in 293 W/m2
09:14 73.9 °F 71.8 °F 29.8 in Calm     92.7% 0 in 308 W/m2
09:19 74.3 °F 71.1 °F 29.8 in Calm     89.3% 0 in 320 W/m2
09:24 76.1 °F 72.5 °F 29.8 in ESE 0.2 mph 4.9 mph 88.3% 0 in 331 W/m2
09:29 78.4 °F 74.8 °F 29.8 in SE 1.4 mph 4.9 mph 89% 0 in 338 W/m2
09:34 78.1 °F 73.8 °F 29.8 in Calm   2.5 mph 86.6% 0 in 353 W/m2
09:39 78.1 °F 73.2 °F 29.8 in SE 0.2 mph 4.9 mph 85.1% 0 in 380 W/m2
09:44 78.4 °F 73.2 °F 29.8 in SSE 1.3 mph 7.6 mph 83.9% 0 in 383 W/m2
09:49 79 °F 73.8 °F 29.8 in SE 1.7 mph 7.6 mph 83.8% 0 in 396 W/m2
09:54 79 °F 73.9 °F 29.8 in SE 0.7 mph 10.1 mph 84.7% 0 in 403 W/m2
09:59 78.8 °F 73.9 °F 29.8 in SE 0.7 mph 4.9 mph 84.7% 0 in 236 W/m2
10:04 78.6 °F 73.4 °F 29.8 in South 2.4 mph 7.6 mph 84.2% 0 in 417 W/m2
10:09 78.6 °F 72.7 °F 29.8 in SSE 1.6 mph 7.6 mph 81.9% 0 in 430 W/m2
10:14 78.6 °F 72.9 °F 29.8 in SE 0.9 mph 4.9 mph 82.3% 0 in 283 W/m2
10:19 78.6 °F 73.2 °F 29.8 in SSE 1.6 mph 7.6 mph 83.3% 0 in 297 W/m2
10:24 78.3 °F 73.6 °F 29.8 in SSE 2.5 mph 7.6 mph 85.8% 0 in 230 W/m2
10:29 77.5 °F 72.3 °F 29.8 in South 2.5 mph 7.6 mph 84.2% 0 in 468 W/m2
10:34 77.5 °F 72 °F 29.8 in SSE 2.5 mph 10.1 mph 82.9% 0 in 479 W/m2
10:39 77.9 °F 72.5 °F 29.8 in SSE 1.6 mph 10.1 mph 83.8% 0 in 487 W/m2
10:44 77.9 °F 73 °F 29.8 in SE 2.2 mph 7.6 mph 85% 0 in 342 W/m2
10:49 78.1 °F 73.4 °F 29.8 in SSE 3.4 mph 10.1 mph 85.3% 0 in 418 W/m2
10:54 78.1 °F 73.8 °F 29.8 in South 2.4 mph 10.1 mph 86.6% 0 in 535 W/m2
10:59 78.1 °F 73.4 °F 29.8 in SSE 4.2 mph 10.1 mph 85.6% 0 in 523 W/m2
11:04 78.4 °F 74.1 °F 29.8 in SSE 4.5 mph 10.1 mph 86.8% 0 in 572 W/m2
11:09 79 °F 74.7 °F 29.8 in South 3.7 mph 10.1 mph 86.9% 0 in 554 W/m2
11:14 78.8 °F 74.8 °F 29.8 in SSE 3.1 mph 10.1 mph 87.6% 0 in 244 W/m2
11:19 78.8 °F 74.8 °F 29.8 in South 2.3 mph 7.6 mph 87.8% 0 in 232 W/m2
11:24 78.4 °F 74.8 °F 29.8 in South 4.1 mph 12.5 mph 88.7% 0 in 287 W/m2
11:29 77.2 °F 74.1 °F 29.8 in South 5.1 mph 12.5 mph 90.6% 0 in 207 W/m2
11:34 77.2 °F 74.1 °F 29.8 in SSE 3.1 mph 10.1 mph 90.6% 0 in 252 W/m2
11:39 77 °F 73.9 °F 29.8 in SSE 3.8 mph 10.1 mph 90.7% 0 in 257 W/m2
11:44 77.2 °F 73.8 °F 29.8 in SSE 4.8 mph 10.1 mph 89.7% 0 in 344 W/m2
11:49 77.7 °F 74.3 °F 29.8 in SSE 4.9 mph 12.5 mph 88.9% 0 in 314 W/m2
11:54 77.7 °F 74.3 °F 29.8 in SSE 5.3 mph 10.1 mph 89% 0 in 301 W/m2
11:59 77.5 °F 74.1 °F 29.8 in South 5.7 mph 10.1 mph 89% 0 in 311 W/m2
12:04 77.5 °F 74.1 °F 29.8 in South 4.7 mph 12.5 mph 88.9% 0 in 269 W/m2
12:09 77.4 °F 73.8 °F 29.8 in South 5.2 mph 12.5 mph 88.3% 0 in 261 W/m2
12:14 77.5 °F 73.8 °F 29.8 in South 5.3 mph 10.1 mph 87.9% 0 in 274 W/m2
12:19 77.5 °F 73.8 °F 29.7 in South 4.8 mph 10.1 mph 87.9% 0 in 272 W/m2
12:24 77.5 °F 73.8 °F 29.8 in SSE 5.1 mph 10.1 mph 87.8% 0 in 347 W/m2
12:29 78.1 °F 74.3 °F 29.8 in South 4.8 mph 10.1 mph 88.4% 0 in 333 W/m2
12:34 78.1 °F 74.3 °F 29.7 in SSE 6.6 mph 12.5 mph 88.3% 0 in 512 W/m2
12:39 78.3 °F 74.1 °F 29.7 in SSE 4.5 mph 12.5 mph 87.4% 0 in 391 W/m2
12:44 78.3 °F 74.3 °F 29.7 in SSE 4.9 mph 10.1 mph 87.1% 0 in 436 W/m2
12:49 79.3 °F 75.2 °F 29.7 in SSE 6.8 mph 15 mph 86.8% 0 in 634 W/m2
12:54 79.3 °F 75 °F 29.7 in SSE 5 mph 12.5 mph 86.7% 0 in 659 W/m2
12:59 79.5 °F 74.8 °F 29.7 in SSE 5.4 mph 12.5 mph 85.5% 0 in 623 W/m2
13:04 79.7 °F 74.7 °F 29.7 in SSE 6.2 mph 15 mph 84.2% 0 in 678 W/m2
13:09 81.7 °F 76.3 °F 29.7 in SSE 5.9 mph 12.5 mph 83.8% 0 in 653 W/m2
13:14 81.7 °F 76.3 °F 29.7 in South 5.6 mph 15 mph 84% 0 in 662 W/m2
13:19 81.7 °F 75.7 °F 29.7 in South 2.8 mph 12.5 mph 82.8% 0 in 349 W/m2
13:24 81.7 °F 76.1 °F 29.7 in South 4.9 mph 12.5 mph 83.6% 0 in 627 W/m2
13:29 81.5 °F 75.7 °F 29.7 in South 4.5 mph 12.5 mph 82.8% 0 in 589 W/m2
13:34 81.5 °F 75.9 °F 29.7 in SSE 4.9 mph 12.5 mph 83% 0 in 681 W/m2
13:39 81.3 °F 76.1 °F 29.7 in SSE 5.8 mph 15 mph 83.8% 0 in 527 W/m2
13:44 81.1 °F 76.1 °F 29.7 in South 6 mph 15 mph 84.4% 0 in 596 W/m2
13:49 80.2 °F 75.2 °F 29.7 in South 6.4 mph 15 mph 84.6% 0 in 571 W/m2
13:54 80.2 °F 74.5 °F 29.7 in South 6.2 mph 12.5 mph 82.8% 0 in 574 W/m2
13:59 80.4 °F 74.5 °F 29.7 in SSE 5.5 mph 12.5 mph 81.6% 0 in 582 W/m2
14:04 81 °F 74.8 °F 29.7 in South 6.4 mph 12.5 mph 81.7% 0 in 552 W/m2
14:09 82.4 °F 75.9 °F 29.7 in SSE 5.8 mph 12.5 mph 81.2% 0 in 585 W/m2
14:14 82.6 °F 76.3 °F 29.7 in South 3.5 mph 12.5 mph 81.3% 0 in 610 W/m2
14:19 82.8 °F 75.9 °F 29.7 in South 3.7 mph 12.5 mph 80.2% 0 in 564 W/m2
14:24 82.8 °F 76.5 °F 29.7 in SSE 5.3 mph 12.5 mph 81.4% 0 in 580 W/m2
14:29 81.9 °F 75.9 °F 29.7 in SSW 5.3 mph 15 mph 82.9% 0 in 499 W/m2
14:34 81.7 °F 75.9 °F 29.7 in South 4.9 mph 15 mph 83.2% 0 in 565 W/m2
14:39 81.7 °F 75.9 °F 29.7 in South 5.3 mph 15 mph 83% 0 in 534 W/m2
14:44 81.9 °F 75.9 °F 29.7 in SSE 5.5 mph 12.5 mph 82.3% 0 in 548 W/m2
14:49 82.6 °F 76.6 °F 29.7 in SSE 5.6 mph 12.5 mph 82.6% 0 in 551 W/m2
14:54 82.8 °F 77.2 °F 29.7 in SSE 5.8 mph 12.5 mph 83.4% 0 in 538 W/m2
14:59 82.8 °F 77 °F 29.7 in SSE 5 mph 12.5 mph 83.1% 0 in 527 W/m2
15:04 82.8 °F 77 °F 29.7 in South 6.2 mph 12.5 mph 83.2% 0 in 527 W/m2
15:09 82.8 °F 77.4 °F 29.7 in South 7.1 mph 15 mph 83.9% 0 in 542 W/m2
15:14 82.8 °F 77.4 °F 29.7 in South 5.8 mph 12.5 mph 83.8% 0 in 538 W/m2
15:19 82.6 °F 77.2 °F 29.7 in South 7 mph 12.5 mph 84% 0 in 529 W/m2
15:24 82.6 °F 76.6 °F 29.7 in South 5.5 mph 12.5 mph 82.2% 0 in 516 W/m2
15:29 83.3 °F 77 °F 29.7 in SSE 5.2 mph 12.5 mph 81.8% 0 in 509 W/m2
15:34 83.7 °F 77.4 °F 29.7 in South 5.9 mph 12.5 mph 81.8% 0 in 509 W/m2
15:39 83.7 °F 77.4 °F 29.7 in South 6.3 mph 15 mph 81.7% 0 in 506 W/m2
15:44 83.7 °F 77.2 °F 29.7 in South 4 mph 12.5 mph 80.8% 0 in 509 W/m2
15:49 83.8 °F 77.4 °F 29.7 in South 4 mph 10.1 mph 80.9% 0 in 505 W/m2
15:54 84 °F 77.4 °F 29.7 in South 6.3 mph 15 mph 80.8% 0 in 502 W/m2
15:59 83.8 °F 77.7 °F 29.7 in South 6.4 mph 15 mph 81.7% 0 in 496 W/m2
16:04 84 °F 77.4 °F 29.7 in SSE 4.6 mph 12.5 mph 80.8% 0 in 492 W/m2
16:09 84 °F 77.4 °F 29.7 in South 4.8 mph 12.5 mph 80.6% 0 in 491 W/m2
16:14 84.2 °F 77.5 °F 29.7 in South 4.2 mph 10.1 mph 80.4% 0 in 490 W/m2
16:19 84.2 °F 77.9 °F 29.8 in SE 7.8 mph 12.5 mph 81.7% 0 in 486 W/m2
16:24 84 °F 77.7 °F 29.7 in South 5.7 mph 15 mph 81.4% 0 in 482 W/m2
16:29 83.8 °F 77.5 °F 29.7 in South 5.8 mph 15 mph 81.3% 0 in 479 W/m2
16:34 83.8 °F 77.2 °F 29.7 in South 3.2 mph 10.1 mph 80.7% 0 in 474 W/m2
16:39 84 °F 77.2 °F 29.7 in South 5.8 mph 10.1 mph 80.2% 0 in 471 W/m2
16:44 84.2 °F 77.5 °F 29.7 in SSE 4.4 mph 12.5 mph 80.7% 0 in 463 W/m2
16:49 84.6 °F 78.1 °F 29.7 in South 4.6 mph 12.5 mph 81.2% 0 in 457 W/m2
16:54 84.7 °F 78.3 °F 29.7 in South 5 mph 12.5 mph 81.2% 0 in 453 W/m2
16:59 84.6 °F 78.3 °F 29.7 in South 5 mph 15 mph 81.3% 0 in 450 W/m2
17:04 84.4 °F 78.3 °F 29.7 in SSE 6.3 mph 15 mph 81.9% 0 in 443 W/m2
17:09 83.5 °F 77.7 °F 29.6 in South 6.9 mph 12.5 mph 82.6% 0 in 432 W/m2
17:14 83.3 °F 77.2 °F 29.6 in South 4.8 mph 17.4 mph 82.2% 0 in 430 W/m2
17:19 83.3 °F 77.4 °F 29.6 in South 6.8 mph 17.4 mph 82.3% 0 in 429 W/m2
17:24 83.3 °F 77.2 °F 29.6 in South 6.2 mph 12.5 mph 82% 0 in 423 W/m2
17:29 83.5 °F 77.2 °F 29.6 in South 3.7 mph 12.5 mph 81.7% 0 in 419 W/m2
17:34 83.5 °F 77.2 °F 29.6 in South 5.8 mph 15 mph 81.6% 0 in 410 W/m2
17:39 83.3 °F 77 °F 29.6 in South 7.1 mph 15 mph 81.7% 0 in 403 W/m2
17:44 83.3 °F 77 °F 29.6 in SSE 5.8 mph 12.5 mph 81.3% 0 in 400 W/m2
17:49 82.9 °F 76.6 °F 29.6 in South 7.3 mph 15 mph 81.7% 0 in 389 W/m2
17:54 82.6 °F 76.8 °F 29.6 in South 6.9 mph 12.5 mph 82.9% 0 in 382 W/m2
17:59 82.6 °F 76.6 °F 29.6 in South 5.5 mph 17.4 mph 82.2% 0 in 370 W/m2
18:04 82.6 °F 76.8 °F 29.6 in SSE 5.3 mph 17.4 mph 83% 0 in 353 W/m2
18:09 82 °F 76.3 °F 29.6 in South 6.2 mph 15 mph 83% 0 in 302 W/m2
18:14 81.7 °F 75.9 °F 29.6 in South 5.3 mph 12.5 mph 83% 0 in 336 W/m2
18:19 81.5 °F 76.1 °F 29.6 in South 7.3 mph 15 mph 83.6% 0 in 332 W/m2
18:24 81.5 °F 76.3 °F 29.6 in South 7 mph 15 mph 84% 0 in 97 W/m2
18:29 81 °F 76.1 °F 29.6 in South 5.6 mph 12.5 mph 85% 0 in 91 W/m2
18:34 80.4 °F 75.6 °F 29.6 in South 6.4 mph 12.5 mph 85.1% 0 in 87 W/m2
18:39 80.4 °F 75.9 °F 29.6 in South 6.5 mph 15 mph 86.1% 0 in 84 W/m2
18:44 80.2 °F 76.1 °F 29.6 in South 5.2 mph 10.1 mph 87% 0 in 82 W/m2
18:49 79.7 °F 75.6 °F 29.6 in South 4.5 mph 12.5 mph 87% 0 in 80 W/m2
18:54 79.2 °F 75.4 °F 29.6 in SSE 5.8 mph 15 mph 88% 0 in 77 W/m2
18:59 79.2 °F 75.4 °F 29.6 in South 4.6 mph 12.5 mph 88% 0 in 74 W/m2
19:04 79.2 °F 75.4 °F 29.6 in South 3.1 mph 10.1 mph 88% 0 in 71 W/m2
19:09 78.8 °F 75.2 °F 29.6 in South 4.1 mph 12.5 mph 88.7% 0 in 68 W/m2
19:14 78.3 °F 74.7 °F 29.6 in South 4.6 mph 12.5 mph 89.1% 0 in 65 W/m2
19:19 78.1 °F 74.8 °F 29.6 in South 5.8 mph 12.5 mph 90% 0 in 62 W/m2
19:24 78.1 °F 74.8 °F 29.6 in South 5.2 mph 12.5 mph 90.3% 0 in 60 W/m2
19:29 77.7 °F 74.8 °F 29.6 in South 3.6 mph 10.1 mph 91% 0 in 57 W/m2
19:34 77.2 °F 74.3 °F 29.7 in South 3.5 mph 12.5 mph 91.2% 0 in 53 W/m2
19:39 77 °F 74.5 °F 29.7 in South 3.9 mph 12.5 mph 92% 0 in 51 W/m2
19:44 77 °F 74.7 °F 29.7 in South 2.2 mph 10.1 mph 92.6% 0 in 47 W/m2
19:49 76.8 °F 74.7 °F 29.7 in South 0.6 mph 4.9 mph 93% 0 in 44 W/m2
19:54 76.3 °F 74.3 °F 29.7 in SSE 1 mph 4.9 mph 93.3% 0 in 40 W/m2
19:59 76.3 °F 74.5 °F 0 in South 1.7 mph 4.9 mph 94% 0 in 36 W/m2
20:04 76.3 °F 74.7 °F 0 in South 1.4 mph 4.9 mph 94.9% 0 in 31 W/m2
20:09 75.9 °F 74.5 °F 0 in South 1.6 mph 7.6 mph 95.6% 0 in 22 W/m2
20:14 75.2 °F 73.9 °F 29.7 in South 1.9 mph 7.6 mph 96% 0 in 13 W/m2
20:19 75.2 °F 73.9 °F 29.7 in SSW 0.9 mph 4.9 mph 96% 0 in 10 W/m2
20:24 75.2 °F 73.9 °F 29.7 in Calm   2.5 mph 96% 0 in 8 W/m2
20:29 75 °F 74.1 °F 29.7 in Calm     97% 0 in 6 W/m2
20:34 74.3 °F 73.6 °F 29.7 in Calm     97.2% 0 in 5 W/m2
20:39 74.3 °F 73.8 °F 29.7 in Calm     98% 0 in 2 W/m2
20:44 74.1 °F 73.8 °F 29.7 in Calm     99% 0 in 0 W/m2
20:49 73.8 °F 73.6 °F 29.7 in Calm     99% 0 in 0 W/m2
20:54 73 °F 72.7 °F 29.7 in South 0.7 mph 4.9 mph 99% 0 in 0 W/m2
20:59 73.2 °F 72.9 °F 29.7 in South 0.5 mph 4.9 mph 98.8% 0 in 0 W/m2
21:04 73.2 °F 72.9 °F 29.7 in Calm   4.9 mph 98.4% 0 in 0 W/m2
21:09 73.2 °F 72.9 °F 29.7 in Calm     99% 0 in 0 W/m2
21:14 72.9 °F 72 °F 29.7 in Calm     96.9% 0 in 0 W/m2
21:19 73 °F 71.8 °F 29.7 in Calm   2.5 mph 96.2% 0 in 0 W/m2
21:24 73 °F 72.7 °F 29.7 in Calm     99% 0 in 0 W/m2
21:29 72.9 °F 72.5 °F 29.7 in Calm     99% 0 in 0 W/m2
21:34 72.1 °F 71.1 °F 29.7 in Calm     96.3% 0 in 0 W/m2
21:39 72.1 °F 70.3 °F 29.7 in South 0.7 mph 4.9 mph 94.1% 0 in 0 W/m2
21:44 72.3 °F 70.3 °F 29.7 in South 0.4 mph 4.9 mph 93.2% 0 in 0 W/m2
21:49 72.7 °F 70.2 °F 29.7 in SSW 0.1 mph 2.5 mph 92% 0 in 0 W/m2
21:54 73.2 °F 71.1 °F 29.7 in Calm     92.9% 0 in 0 W/m2
21:59 73.2 °F 71.2 °F 29.7 in Calm   2.5 mph 93.3% 0 in 0 W/m2
22:04 73.2 °F 71.1 °F 29.7 in Calm   2.5 mph 93% 0 in 0 W/m2
22:09 73 °F 71.4 °F 29.7 in Calm     94.9% 0 in 0 W/m2
22:14 72.9 °F 71.4 °F 29.7 in South 0.2 mph 2.5 mph 95% 0 in 0 W/m2
22:19 72.9 °F 71.6 °F 29.7 in Calm     96.1% 0 in 0 W/m2
22:24 72.7 °F 71.8 °F 29.7 in South 0.4 mph 4.9 mph 97% 0 in 0 W/m2
22:29 72.7 °F 71.4 °F 29.7 in South 0.7 mph 4.9 mph 96% 0 in 0 W/m2
22:34 72.7 °F 71.4 °F 29.7 in South 1.1 mph 4.9 mph 96% 0 in 0 W/m2
22:39 72.7 °F 71.4 °F 29.7 in South 2.4 mph 7.6 mph 96% 0 in 0 W/m2
22:44 72.7 °F 71.2 °F 29.7 in South 1 mph 7.6 mph 95.6% 0 in 0 W/m2
22:49 72.7 °F 71.2 °F 29.7 in SSE 1.6 mph 7.6 mph 95% 0 in 0 W/m2
22:54 72.7 °F 71.1 °F 29.7 in South 2.3 mph 7.6 mph 94.7% 0 in 0 W/m2
22:59 72.7 °F 70.9 °F 29.7 in South 3 mph 10.1 mph 94% 0 in 0 W/m2
23:04 72.9 °F 71.1 °F 29.7 in SSE 3.5 mph 7.6 mph 94% 0 in 0 W/m2
23:09 72.9 °F 70.9 °F 29.7 in South 2.1 mph 7.6 mph 93.6% 0 in 0 W/m2
23:14 72.9 °F 70.7 °F 29.7 in South 3.6 mph 10.1 mph 93.1% 0 in 0 W/m2
23:19 72.9 °F 70.7 °F 29.7 in South 2.9 mph 7.6 mph 92.9% 0 in 0 W/m2
23:24 72.9 °F 70.7 °F 29.7 in SSW 3.7 mph 10.1 mph 93% 0 in 0 W/m2
23:29 72.9 °F 70.7 °F 29.7 in South 3.4 mph 10.1 mph 93% 0 in 0 W/m2
23:34 72.7 °F 70.5 °F 29.7 in South 2.8 mph 7.6 mph 93% 0 in 0 W/m2
23:39 72.7 °F 70.7 °F 29.7 in South 1.2 mph 7.6 mph 93.6% 0 in 0 W/m2
23:44 72.7 °F 70.9 °F 29.7 in South 0.9 mph 4.9 mph 94% 0 in 0 W/m2
23:49 72.7 °F 70.9 °F 29.7 in South 1.9 mph 7.6 mph 94% 0 in 0 W/m2
23:54 72.7 °F 70.9 °F 29.7 in South 1.5 mph 7.6 mph 94% 0 in 0 W/m2
23:59 72.7 °F 70.9 °F 29.7 in South 1.1 mph 10.1 mph 94% 0 in 0 W/m2
Juneau County Weather
Compliments of Weather Underground - 2 mb